createdAt,value
2023-03-05T00:00:40.043Z,0.30
2023-03-05T00:03:07.163Z,0.30
2023-03-05T00:05:34.838Z,0.30
2023-03-05T00:08:01.933Z,0.30
2023-03-05T00:10:28.993Z,0.30
2023-03-05T00:12:56.135Z,0.30
2023-03-05T00:15:23.211Z,0.30
2023-03-05T00:17:50.294Z,0.30
2023-03-05T00:20:17.504Z,0.30
2023-03-05T00:22:44.618Z,0.30
2023-03-05T00:25:11.685Z,0.30
2023-03-05T00:27:38.750Z,0.30
2023-03-05T00:30:06.201Z,0.30
2023-03-05T00:32:33.324Z,0.30
2023-03-05T00:35:00.433Z,0.30
2023-03-05T00:37:27.528Z,0.30
2023-03-05T00:39:54.971Z,0.30
2023-03-05T00:42:22.089Z,0.30
2023-03-05T00:44:49.227Z,0.30
2023-03-05T00:47:18.382Z,0.20
2023-03-05T00:49:45.464Z,0.30
2023-03-05T00:52:12.533Z,0.30
2023-03-05T00:54:40.569Z,0.20
2023-03-05T00:57:07.820Z,0.20
2023-03-05T00:59:34.920Z,0.20
2023-03-05T01:02:02.044Z,0.20
2023-03-05T01:04:30.008Z,0.20
2023-03-05T01:06:58.790Z,0.20
2023-03-05T01:09:25.956Z,0.20
2023-03-05T01:11:53.092Z,0.10
2023-03-05T01:14:20.416Z,0.20
2023-03-05T01:16:47.539Z,0.20
2023-03-05T01:19:14.795Z,0.20
2023-03-05T01:21:42.031Z,0.20
2023-03-05T01:24:09.135Z,0.20
2023-03-05T01:26:36.202Z,0.20
2023-03-05T01:29:03.578Z,0.20
2023-03-05T01:31:30.783Z,0.20
2023-03-05T01:34:00.127Z,0.20
2023-03-05T01:36:27.235Z,0.20
2023-03-05T01:38:54.314Z,0.30
2023-03-05T01:41:21.716Z,0.20
2023-03-05T01:43:48.962Z,0.20
2023-03-05T01:46:16.736Z,0.30
2023-03-05T01:48:44.474Z,0.30
2023-03-05T01:51:11.556Z,0.30
2023-03-05T01:53:38.644Z,0.30
2023-03-05T01:56:05.918Z,0.30
2023-03-05T01:58:32.939Z,0.30
2023-03-05T02:01:00.101Z,0.30
2023-03-05T02:03:27.256Z,0.30
2023-03-05T02:05:54.438Z,0.30
2023-03-05T02:08:21.676Z,0.30
2023-03-05T02:10:49.500Z,0.30
2023-03-05T02:13:22.497Z,0.30
2023-03-05T02:15:49.859Z,0.40
2023-03-05T02:18:17.582Z,0.30
2023-03-05T02:20:50.859Z,0.30
2023-03-05T02:23:18.541Z,0.30
2023-03-05T02:25:45.613Z,0.40
2023-03-05T02:28:31.303Z,0.40
2023-03-05T02:30:58.504Z,0.40
2023-03-05T02:33:25.828Z,0.40
2023-03-05T02:35:53.124Z,0.30
2023-03-05T02:38:20.562Z,0.40
2023-03-05T02:40:47.698Z,0.40
2023-03-05T02:43:16.552Z,0.40
2023-03-05T02:45:43.709Z,0.40
2023-03-05T02:48:10.791Z,0.40
2023-03-05T02:50:39.689Z,0.40
2023-03-05T02:53:06.980Z,0.40
2023-03-05T02:55:34.412Z,0.40
2023-03-05T02:58:01.542Z,0.40
2023-03-05T03:00:28.817Z,0.40
2023-03-05T03:02:56.091Z,0.40
2023-03-05T03:05:23.207Z,0.40
2023-03-05T03:07:50.815Z,0.40
2023-03-05T03:10:18.268Z,0.40
2023-03-05T03:12:45.350Z,0.50
2023-03-05T03:15:13.368Z,0.50
2023-03-05T03:17:40.410Z,0.50
2023-03-05T03:20:08.255Z,0.50
2023-03-05T03:22:36.342Z,0.50
2023-03-05T03:25:03.758Z,0.50
2023-03-05T03:27:30.771Z,0.50
2023-03-05T03:30:02.491Z,0.50
2023-03-05T03:32:29.790Z,0.50
2023-03-05T03:34:56.896Z,0.50
2023-03-05T03:37:23.972Z,0.50
2023-03-05T03:39:51.022Z,0.50
2023-03-05T03:42:18.485Z,0.50
2023-03-05T03:44:45.596Z,0.50
2023-03-05T03:47:12.656Z,0.50
2023-03-05T03:49:39.717Z,0.50
2023-03-05T03:52:06.827Z,0.60
2023-03-05T03:54:33.911Z,0.60
2023-03-05T03:57:01.029Z,0.60
2023-03-05T03:59:28.206Z,0.60
2023-03-05T04:01:55.234Z,0.60
2023-03-05T04:04:22.324Z,0.60
2023-03-05T04:06:49.433Z,0.60
2023-03-05T04:09:16.512Z,0.70
2023-03-05T04:11:43.560Z,0.60
2023-03-05T04:14:11.676Z,0.60
2023-03-05T04:16:38.746Z,0.70
2023-03-05T04:19:05.934Z,0.70
2023-03-05T04:21:33.024Z,0.70
2023-03-05T04:24:01.081Z,0.70
2023-03-05T04:26:28.153Z,0.70
2023-03-05T04:28:55.226Z,0.70
2023-03-05T04:31:23.776Z,0.70
2023-03-05T04:33:51.026Z,0.70
2023-03-05T04:36:18.062Z,0.70
2023-03-05T04:38:45.100Z,0.70
2023-03-05T04:41:12.153Z,0.70
2023-03-05T04:43:39.191Z,0.80
2023-03-05T04:46:06.375Z,0.80
2023-03-05T04:48:33.449Z,0.80
2023-03-05T04:51:00.555Z,0.80
2023-03-05T04:53:27.696Z,0.80
2023-03-05T04:55:55.225Z,0.80
2023-03-05T04:58:22.549Z,0.80
2023-03-05T05:00:49.658Z,0.80
2023-03-05T05:03:16.781Z,0.80
2023-03-05T05:05:43.940Z,0.80
2023-03-05T05:08:11.123Z,0.80
2023-03-05T05:10:41.425Z,0.80
2023-03-05T05:13:08.640Z,0.80
2023-03-05T05:15:35.703Z,0.80
2023-03-05T05:18:02.841Z,0.80
2023-03-05T05:20:29.966Z,0.80
2023-03-05T05:22:57.200Z,0.80
2023-03-05T05:25:24.346Z,0.90
2023-03-05T05:27:51.403Z,0.90
2023-03-05T05:30:18.702Z,0.90
2023-03-05T05:32:45.781Z,0.90
2023-03-05T05:35:13.032Z,0.90
2023-03-05T05:37:40.139Z,0.90
2023-03-05T05:40:08.253Z,0.90
2023-03-05T05:42:35.412Z,0.90
2023-03-05T05:45:03.030Z,0.90
2023-03-05T05:47:30.155Z,0.90
2023-03-05T05:49:57.318Z,0.90
2023-03-05T05:52:24.409Z,0.90
2023-03-05T05:54:51.552Z,0.90
2023-03-05T05:57:18.658Z,0.90
2023-03-05T05:59:45.723Z,0.90
2023-03-05T06:02:13.096Z,1.00
2023-03-05T06:04:40.336Z,1.00
2023-03-05T06:07:08.213Z,1.00
2023-03-05T06:09:35.617Z,1.00
2023-03-05T06:12:02.701Z,1.00
2023-03-05T06:14:29.868Z,1.00
2023-03-05T06:16:58.058Z,1.00
2023-03-05T06:19:25.163Z,1.00
2023-03-05T06:21:52.267Z,1.00
2023-03-05T06:24:19.374Z,1.00
2023-03-05T06:26:48.551Z,1.00
2023-03-05T06:29:15.900Z,1.10
2023-03-05T06:31:43.051Z,1.10
2023-03-05T06:34:10.256Z,1.10
2023-03-05T06:36:40.582Z,1.10
2023-03-05T06:39:07.670Z,1.10
2023-03-05T06:41:34.901Z,1.10
2023-03-05T06:44:05.143Z,1.10
2023-03-05T06:46:33.124Z,1.20
2023-03-05T06:49:00.825Z,1.10
2023-03-05T06:51:29.017Z,1.20
2023-03-05T06:53:56.419Z,1.20
2023-03-05T06:56:23.517Z,1.20
2023-03-05T06:58:51.035Z,1.20
2023-03-05T07:01:19.059Z,1.20
2023-03-05T07:03:48.528Z,1.20
2023-03-05T07:06:16.015Z,1.20
2023-03-05T07:08:44.645Z,1.30
2023-03-05T07:11:12.487Z,1.20
2023-03-05T07:13:39.798Z,1.30
2023-03-05T07:16:07.520Z,1.30
2023-03-05T07:18:34.724Z,1.30
2023-03-05T07:21:07.169Z,1.20
2023-03-05T07:23:34.509Z,1.30
2023-03-05T07:26:02.277Z,1.30
2023-03-05T07:28:29.401Z,1.30
2023-03-05T07:30:57.687Z,1.30
2023-03-05T07:33:25.366Z,1.30
2023-03-05T07:35:52.523Z,1.30
2023-03-05T07:38:19.638Z,1.30
2023-03-05T07:40:46.734Z,1.40
2023-03-05T07:43:13.845Z,1.40
2023-03-05T07:45:41.621Z,1.40
2023-03-05T07:48:08.832Z,1.40
2023-03-05T07:50:35.951Z,1.40
2023-03-05T07:53:03.126Z,1.40
2023-03-05T07:55:30.332Z,1.40
2023-03-05T07:57:57.441Z,1.50
2023-03-05T08:00:24.519Z,1.50
2023-03-05T08:02:51.654Z,1.50
2023-03-05T08:05:19.808Z,1.50
2023-03-05T08:07:46.978Z,1.50
2023-03-05T08:10:14.066Z,1.50
2023-03-05T08:12:41.139Z,1.50
2023-03-05T08:15:08.376Z,1.60
2023-03-05T08:17:35.514Z,1.60
2023-03-05T08:20:05.502Z,1.60
2023-03-05T08:22:34.028Z,1.70
2023-03-05T08:25:01.379Z,1.70
2023-03-05T08:27:28.435Z,1.70
2023-03-05T08:29:55.602Z,1.70
2023-03-05T08:32:22.704Z,1.70
2023-03-05T08:34:49.799Z,1.80
2023-03-05T08:37:16.911Z,1.80
2023-03-05T08:39:43.999Z,1.80
2023-03-05T08:42:11.073Z,1.80
2023-03-05T08:44:38.138Z,1.80
2023-03-05T08:47:05.265Z,1.80
2023-03-05T08:49:32.354Z,1.80
2023-03-05T08:51:59.441Z,1.80
2023-03-05T08:54:26.534Z,1.90
2023-03-05T08:56:53.614Z,1.90
2023-03-05T08:59:20.694Z,1.90
2023-03-05T09:01:47.900Z,1.90
2023-03-05T09:04:15.645Z,2.00
2023-03-05T09:06:42.796Z,1.90
2023-03-05T09:09:09.901Z,2.00
2023-03-05T09:11:37.058Z,2.00
2023-03-05T09:14:04.126Z,2.00
2023-03-05T09:16:31.291Z,2.00
2023-03-05T09:18:59.756Z,2.00
2023-03-05T09:21:26.836Z,2.00
2023-03-05T09:23:59.425Z,2.00
2023-03-05T09:26:26.562Z,2.00
2023-03-05T09:28:53.674Z,2.00
2023-03-05T09:31:20.890Z,2.00
2023-03-05T09:33:48.443Z,2.10
2023-03-05T09:36:26.603Z,2.10
2023-03-05T09:38:53.732Z,2.10
2023-03-05T09:41:29.855Z,2.10
2023-03-05T09:44:12.358Z,2.10
2023-03-05T09:46:45.614Z,2.20
2023-03-05T09:49:31.667Z,2.20
2023-03-05T09:52:03.436Z,2.20
2023-03-05T09:54:37.078Z,2.20
2023-03-05T09:57:04.408Z,2.20
2023-03-05T09:59:33.521Z,2.20
2023-03-05T10:02:01.541Z,2.20
2023-03-05T10:04:29.319Z,2.30
2023-03-05T10:06:56.452Z,2.30
2023-03-05T10:09:42.315Z,2.30
2023-03-05T10:12:14.645Z,2.40
2023-03-05T10:14:41.866Z,2.40
2023-03-05T10:17:27.824Z,2.40
2023-03-05T10:20:02.828Z,2.40
2023-03-05T10:22:31.563Z,2.40
2023-03-05T10:25:02.625Z,2.50
2023-03-05T10:27:39.954Z,2.50
2023-03-05T10:30:07.178Z,2.40
2023-03-05T10:32:43.520Z,2.50
2023-03-05T10:35:23.465Z,2.50
2023-03-05T10:38:05.886Z,2.50
2023-03-05T10:40:38.802Z,2.50
2023-03-05T10:43:05.899Z,2.60
2023-03-05T10:45:40.115Z,2.50
2023-03-05T10:48:13.846Z,2.60
2023-03-05T10:50:42.826Z,2.60
2023-03-05T10:53:09.906Z,2.60
2023-03-05T10:55:36.994Z,2.70
2023-03-05T10:58:14.872Z,2.70
2023-03-05T11:00:58.344Z,2.70
2023-03-05T11:03:25.482Z,2.70
2023-03-05T11:06:02.866Z,2.70
2023-03-05T11:08:33.822Z,2.70
2023-03-05T11:11:04.222Z,2.70
2023-03-05T11:13:32.724Z,2.70
2023-03-05T11:16:00.361Z,2.70
2023-03-05T11:18:31.299Z,2.70
2023-03-05T11:21:33.993Z,2.80
2023-03-05T11:24:19.403Z,2.80
2023-03-05T11:26:50.259Z,2.80
2023-03-05T11:29:18.575Z,2.80
2023-03-05T11:31:45.658Z,2.80
2023-03-05T11:34:18.692Z,2.90
2023-03-05T11:36:53.139Z,2.90
2023-03-05T11:39:22.343Z,2.90
2023-03-05T11:41:49.442Z,2.90
2023-03-05T11:44:18.788Z,3.00
2023-03-05T11:47:22.499Z,3.00
2023-03-05T11:49:50.467Z,3.00
2023-03-05T11:52:22.036Z,3.00
2023-03-05T11:55:06.022Z,3.00
2023-03-05T11:57:34.273Z,3.00
2023-03-05T12:00:01.354Z,3.00
2023-03-05T12:02:31.272Z,3.00
2023-03-05T12:04:59.972Z,3.00
2023-03-05T12:07:35.986Z,3.00
2023-03-05T12:10:03.079Z,3.10
2023-03-05T12:12:48.971Z,3.00
2023-03-05T12:15:19.217Z,3.10
2023-03-05T12:17:49.699Z,3.10
2023-03-05T12:20:35.261Z,3.20
2023-03-05T12:23:02.355Z,3.10
2023-03-05T12:25:44.627Z,3.20
2023-03-05T12:28:31.960Z,3.20
2023-03-05T12:31:00.299Z,3.20
2023-03-05T12:33:41.694Z,3.20
2023-03-05T12:36:17.978Z,3.20
2023-03-05T12:38:47.529Z,3.20
2023-03-05T12:41:24.940Z,3.20
2023-03-05T12:44:05.956Z,3.20
2023-03-05T12:46:36.570Z,3.20
2023-03-05T12:49:20.303Z,3.20
2023-03-05T12:51:47.743Z,3.20
2023-03-05T12:54:27.138Z,3.20
2023-03-05T12:56:54.950Z,3.30
2023-03-05T12:59:23.536Z,3.30
2023-03-05T13:01:51.932Z,3.40
2023-03-05T13:04:22.544Z,3.40
2023-03-05T13:07:00.002Z,3.40
2023-03-05T13:09:28.437Z,3.40
2023-03-05T13:11:55.596Z,3.40
2023-03-05T13:14:27.905Z,3.40
2023-03-05T13:16:54.961Z,3.40
2023-03-05T13:19:22.029Z,3.30
2023-03-05T13:22:02.215Z,3.40
2023-03-05T13:24:29.905Z,3.40
2023-03-05T13:26:56.955Z,3.40
2023-03-05T13:29:28.034Z,3.50
2023-03-05T13:31:56.383Z,3.60
2023-03-05T13:34:25.433Z,3.60
2023-03-05T13:37:12.377Z,3.70
2023-03-05T13:39:58.697Z,3.70
2023-03-05T13:42:26.422Z,3.80
2023-03-05T13:44:54.664Z,3.80
2023-03-05T13:47:22.086Z,3.80
2023-03-05T13:49:55.168Z,3.80
2023-03-05T13:52:35.314Z,3.90
2023-03-05T13:55:02.787Z,3.90
2023-03-05T13:57:43.315Z,3.90
2023-03-05T14:00:27.952Z,4.00
2023-03-05T14:02:55.265Z,4.00
2023-03-05T14:05:22.342Z,4.00
2023-03-05T14:07:49.821Z,3.90
2023-03-05T14:10:30.736Z,4.00
2023-03-05T14:12:58.136Z,3.90
2023-03-05T14:15:28.996Z,3.90
2023-03-05T14:18:11.368Z,3.90
2023-03-05T14:20:39.174Z,3.90
2023-03-05T14:23:45.308Z,3.90
2023-03-05T14:26:30.660Z,3.90
2023-03-05T14:29:04.323Z,3.80
2023-03-05T14:31:32.609Z,3.80
2023-03-05T14:34:03.772Z,3.80
2023-03-05T14:36:30.944Z,3.90
2023-03-05T14:38:58.022Z,3.80
2023-03-05T14:41:35.636Z,3.80
2023-03-05T14:44:02.720Z,3.80
2023-03-05T14:46:29.869Z,3.70
2023-03-05T14:48:57.021Z,3.70
2023-03-05T14:51:24.034Z,3.70
2023-03-05T14:53:51.130Z,3.60
2023-03-05T14:56:25.554Z,3.60
2023-03-05T14:58:53.587Z,3.60
2023-03-05T15:01:20.701Z,3.60
2023-03-05T15:03:47.740Z,3.60
2023-03-05T15:06:32.947Z,3.60
2023-03-05T15:09:00.541Z,3.60
2023-03-05T15:11:27.623Z,3.60
2023-03-05T15:13:54.671Z,3.50
2023-03-05T15:16:21.776Z,3.50
2023-03-05T15:18:48.917Z,3.50
2023-03-05T15:21:15.989Z,3.50
2023-03-05T15:23:44.495Z,3.50
2023-03-05T15:26:12.353Z,3.50
2023-03-05T15:28:39.474Z,3.50
2023-03-05T15:31:06.626Z,3.50
2023-03-05T15:33:33.789Z,3.50
2023-03-05T15:36:00.846Z,3.40
2023-03-05T15:38:27.906Z,3.40
2023-03-05T15:40:54.941Z,3.40
2023-03-05T15:43:22.053Z,3.40
2023-03-05T15:45:49.148Z,3.40
2023-03-05T15:48:16.194Z,3.40
2023-03-05T15:50:43.695Z,3.30
2023-03-05T15:53:11.845Z,3.30
2023-03-05T15:55:39.430Z,3.30
2023-03-05T15:58:06.554Z,3.30
2023-03-05T16:00:34.123Z,3.30
2023-03-05T16:03:01.238Z,3.20
2023-03-05T16:05:29.398Z,3.30
2023-03-05T16:07:56.497Z,3.20
2023-03-05T16:10:25.207Z,3.20
2023-03-05T16:12:56.538Z,3.20
2023-03-05T16:15:23.579Z,3.20
2023-03-05T16:17:52.331Z,3.20
2023-03-05T16:20:19.505Z,3.20
2023-03-05T16:22:46.584Z,3.10
2023-03-05T16:25:13.662Z,3.10
2023-03-05T16:27:40.784Z,3.10
2023-03-05T16:30:09.158Z,3.10
2023-03-05T16:32:36.924Z,3.00
2023-03-05T16:35:04.102Z,3.00
2023-03-05T16:37:31.233Z,3.00
2023-03-05T16:39:59.082Z,3.00
2023-03-05T16:42:26.114Z,3.00
2023-03-05T16:44:53.230Z,2.90
2023-03-05T16:47:20.316Z,3.00
2023-03-05T16:49:47.380Z,2.90
2023-03-05T16:52:19.020Z,2.90
2023-03-05T16:54:48.017Z,2.90
2023-03-05T16:57:15.268Z,2.90
2023-03-05T16:59:43.501Z,2.80
2023-03-05T17:02:12.616Z,2.80
2023-03-05T17:04:39.789Z,2.80
2023-03-05T17:07:06.936Z,2.80
2023-03-05T17:09:34.039Z,2.80
2023-03-05T17:12:01.086Z,2.80
2023-03-05T17:14:28.147Z,2.80
2023-03-05T17:16:55.272Z,2.70
2023-03-05T17:19:22.413Z,2.70
2023-03-05T17:21:52.010Z,2.70
2023-03-05T17:24:21.376Z,2.70
2023-03-05T17:26:49.869Z,2.70
2023-03-05T17:29:18.826Z,2.70
2023-03-05T17:31:46.634Z,2.70
2023-03-05T17:34:14.385Z,2.70
2023-03-05T17:36:41.494Z,2.70
2023-03-05T17:39:09.556Z,2.70
2023-03-05T17:41:36.572Z,2.60
2023-03-05T17:44:03.715Z,2.70
2023-03-05T17:46:30.830Z,2.60
2023-03-05T17:48:57.964Z,2.60
2023-03-05T17:51:25.079Z,2.60
2023-03-05T17:53:52.120Z,2.60
2023-03-05T17:56:22.227Z,2.60
2023-03-05T17:58:49.423Z,2.60
2023-03-05T18:01:23.626Z,2.60
2023-03-05T18:03:51.773Z,2.60
2023-03-05T18:06:18.965Z,2.60
2023-03-05T18:08:46.106Z,2.50
2023-03-05T18:11:13.135Z,2.50
2023-03-05T18:13:40.282Z,2.50
2023-03-05T18:16:08.889Z,2.50
2023-03-05T18:18:36.003Z,2.50
2023-03-05T18:21:03.203Z,2.50
2023-03-05T18:23:30.237Z,2.50
2023-03-05T18:25:57.304Z,2.50
2023-03-05T18:28:25.894Z,2.50
2023-03-05T18:30:53.108Z,2.50
2023-03-05T18:33:21.263Z,2.50
2023-03-05T18:35:51.915Z,2.40
2023-03-05T18:38:19.692Z,2.50
2023-03-05T18:40:47.677Z,2.50
2023-03-05T18:43:16.836Z,2.50
2023-03-05T18:45:44.037Z,2.50
2023-03-05T18:48:11.660Z,2.50
2023-03-05T18:50:38.732Z,2.50
2023-03-05T18:53:05.763Z,2.40
2023-03-05T18:55:32.902Z,2.40
2023-03-05T18:58:00.095Z,2.40
2023-03-05T19:00:28.018Z,2.40
2023-03-05T19:02:55.183Z,2.40
2023-03-05T19:05:22.351Z,2.40
2023-03-05T19:07:49.443Z,2.40
2023-03-05T19:10:17.542Z,2.40
2023-03-05T19:13:15.305Z,2.40
2023-03-05T19:16:02.432Z,2.40
2023-03-05T19:18:43.909Z,2.40
2023-03-05T19:21:16.094Z,2.40
2023-03-05T19:23:43.170Z,2.40
2023-03-05T19:26:10.200Z,2.40
2023-03-05T19:28:37.308Z,2.40
2023-03-05T19:31:04.421Z,2.40
2023-03-05T19:33:31.716Z,2.40
2023-03-05T19:35:59.045Z,2.40
2023-03-05T19:38:26.105Z,2.40
2023-03-05T19:40:53.362Z,2.40
2023-03-05T19:43:20.399Z,2.40
2023-03-05T19:45:47.502Z,2.40
2023-03-05T19:48:15.425Z,2.40
2023-03-05T19:50:42.514Z,2.40
2023-03-05T19:53:09.586Z,2.30
2023-03-05T19:55:38.875Z,2.40
2023-03-05T19:58:05.946Z,2.30
2023-03-05T20:00:32.998Z,2.30
2023-03-05T20:03:00.094Z,2.30
2023-03-05T20:05:27.291Z,2.30
2023-03-05T20:07:54.340Z,2.30
2023-03-05T20:10:22.475Z,2.30
2023-03-05T20:12:50.512Z,2.30
2023-03-05T20:15:18.248Z,2.30
2023-03-05T20:17:45.764Z,2.30
2023-03-05T20:20:16.580Z,2.30
2023-03-05T20:22:44.184Z,2.30
2023-03-05T20:25:12.369Z,2.30
2023-03-05T20:27:39.541Z,2.40
2023-03-05T20:30:07.164Z,2.40
2023-03-05T20:32:34.241Z,2.30
2023-03-05T20:35:01.355Z,2.30
2023-03-05T20:38:02.359Z,2.30
2023-03-05T20:40:32.433Z,2.30
2023-03-05T20:42:59.486Z,2.30
2023-03-05T20:45:26.521Z,2.30
2023-03-05T20:47:53.653Z,2.30
2023-03-05T20:50:20.808Z,2.30
2023-03-05T20:52:47.822Z,2.30
2023-03-05T20:55:14.913Z,2.30
2023-03-05T20:57:44.004Z,2.30
2023-03-05T21:00:11.581Z,2.30
2023-03-05T21:02:39.918Z,2.30
2023-03-05T21:05:07.178Z,2.30
2023-03-05T21:07:34.250Z,2.30
2023-03-05T21:10:01.329Z,2.30
2023-03-05T21:12:28.853Z,2.20
2023-03-05T21:14:56.182Z,2.20
2023-03-05T21:17:23.260Z,2.20
2023-03-05T21:19:50.386Z,2.20
2023-03-05T21:22:17.455Z,2.20
2023-03-05T21:25:17.241Z,2.20
2023-03-05T21:27:44.424Z,2.20
2023-03-05T21:30:12.115Z,2.20
2023-03-05T21:32:39.282Z,2.20
2023-03-05T21:35:06.613Z,2.20
2023-03-05T21:37:34.784Z,2.20
2023-03-05T21:40:01.836Z,2.20
2023-03-05T21:42:29.141Z,2.20
2023-03-05T21:44:56.535Z,2.20
2023-03-05T21:47:23.596Z,2.20
2023-03-05T21:49:52.546Z,2.20
2023-03-05T21:52:21.762Z,2.20
2023-03-05T21:54:48.866Z,2.20
2023-03-05T21:57:15.957Z,2.20
2023-03-05T21:59:43.007Z,2.10
2023-03-05T22:02:13.640Z,2.20
2023-03-05T22:04:40.822Z,2.10
2023-03-05T22:07:07.996Z,2.10
2023-03-05T22:09:35.101Z,2.10
2023-03-05T22:12:04.572Z,2.10
2023-03-05T22:14:57.602Z,2.10
2023-03-05T22:17:24.731Z,2.10
2023-03-05T22:19:51.820Z,2.10
2023-03-05T22:22:18.893Z,2.10
2023-03-05T22:24:46.088Z,2.10
2023-03-05T22:27:13.207Z,2.10
2023-03-05T22:29:40.297Z,2.10
2023-03-05T22:32:07.441Z,2.10
2023-03-05T22:34:34.567Z,2.10
2023-03-05T22:37:01.694Z,2.10
2023-03-05T22:39:28.844Z,2.10
2023-03-05T22:41:55.921Z,2.10
2023-03-05T22:44:25.042Z,2.10
2023-03-05T22:46:52.264Z,2.10
2023-03-05T22:49:19.338Z,2.10
2023-03-05T22:51:46.497Z,2.00
2023-03-05T22:54:13.580Z,2.00
2023-03-05T22:56:40.651Z,2.00
2023-03-05T22:59:07.730Z,2.00
2023-03-05T23:01:34.857Z,2.00
2023-03-05T23:04:48.102Z,2.00
2023-03-05T23:07:22.245Z,2.00
2023-03-05T23:09:53.644Z,2.00
2023-03-05T23:12:20.752Z,2.00
2023-03-05T23:14:47.862Z,2.00
2023-03-05T23:17:14.940Z,2.00
2023-03-05T23:19:42.088Z,2.00
2023-03-05T23:22:09.966Z,2.00
2023-03-05T23:24:37.126Z,1.90
2023-03-05T23:27:07.183Z,2.00
2023-03-05T23:30:04.110Z,2.00
2023-03-05T23:32:37.441Z,2.00
2023-03-05T23:35:04.811Z,1.90
2023-03-05T23:37:31.880Z,1.90
2023-03-05T23:39:59.016Z,1.90
2023-03-05T23:42:26.094Z,2.00
2023-03-05T23:44:53.831Z,2.00
2023-03-05T23:47:20.907Z,1.90
2023-03-05T23:49:48.028Z,1.90
2023-03-05T23:52:15.194Z,1.90
2023-03-05T23:54:42.232Z,1.90
2023-03-05T23:57:09.354Z,1.90
2023-03-05T23:59:36.413Z,1.90
